Time;durP1;ratioP1;P1;durP2;ratioP2;P2;SDS_P1;SDS_P2;PMS_P1;PMS_P2;Temp;Humidity;BMP_temperature;BMP_pressure;BME280_temperature;BME280_humidity;BME280_pressure;Samples;Min_cycle;Max_cycle;Signal;HPM_P1;HPM_P2
2023/01/22 00:01:47;;;;;;;7.97;5.43;;;;;;;;;;5079458;28;20483;-60
2023/01/22 00:04:15;;;;;;;8.53;5.80;;;;;;;;;;5080978;28;20559;-60
2023/01/22 00:06:43;;;;;;;8.93;5.63;;;;;;;;;;5080736;28;21058;-60
2023/01/22 00:09:11;;;;;;;7.50;5.97;;;;;;;;;;5080889;28;20946;-60
2023/01/22 00:11:41;;;;;;;6.83;5.50;;;;;;;;;;5080946;28;20448;-60
2023/01/22 00:14:09;;;;;;;8.00;5.27;;;;;;;;;;5080644;28;20967;-59
2023/01/22 00:16:38;;;;;;;13.83;8.73;;;;;;;;;;5080627;28;20472;-60
2023/01/22 00:19:06;;;;;;;6.20;5.33;;;;;;;;;;5080604;28;20495;-60
2023/01/22 00:21:34;;;;;;;8.23;5.33;;;;;;;;;;5080667;28;20445;-60
2023/01/22 00:24:03;;;;;;;10.40;5.77;;;;;;;;;;5080879;28;20472;-59
2023/01/22 00:26:31;;;;;;;10.73;6.03;;;;;;;;;;5080501;28;20498;-59
2023/01/22 00:29:00;;;;;;;6.90;5.73;;;;;;;;;;5080786;28;20444;-60
2023/01/22 00:31:28;;;;;;;7.43;5.17;;;;;;;;;;5080174;28;20959;-60
2023/01/22 00:33:57;;;;;;;7.50;5.07;;;;;;;;;;5080425;28;20460;-60
2023/01/22 00:36:25;;;;;;;7.80;4.80;;;;;;;;;;5080271;28;20437;-60
2023/01/22 00:38:53;;;;;;;8.17;6.10;;;;;;;;;;5080620;28;20507;-60
2023/01/22 00:41:21;;;;;;;9.27;5.87;;;;;;;;;;5080303;28;20801;-60
2023/01/22 00:43:49;;;;;;;11.37;4.83;;;;;;;;;;5080194;28;20460;-60
2023/01/22 00:46:21;;;;;;;6.47;5.30;;;;;;;;;;5079881;28;20975;-60
2023/01/22 00:48:49;;;;;;;7.77;4.93;;;;;;;;;;5080535;28;20452;-60
2023/01/22 00:51:18;;;;;;;6.93;4.50;;;;;;;;;;5066729;28;20803;-60
2023/01/22 00:53:46;;;;;;;7.03;4.73;;;;;;;;;;5079943;28;20460;-60
2023/01/22 00:56:14;;;;;;;7.47;5.50;;;;;;;;;;5080116;28;20531;-60
2023/01/22 00:58:42;;;;;;;9.10;5.63;;;;;;;;;;5080182;28;20443;-59
2023/01/22 01:01:12;;;;;;;8.93;5.63;;;;;;;;;;5079895;28;20452;-60
2023/01/22 01:03:42;;;;;;;11.00;6.47;;;;;;;;;;5079753;28;20464;-60
2023/01/22 01:06:12;;;;;;;5.73;4.73;;;;;;;;;;5079951;28;20488;-59
2023/01/22 01:08:41;;;;;;;8.97;5.23;;;;;;;;;;5080024;28;20527;-59
2023/01/22 01:11:11;;;;;;;6.80;4.77;;;;;;;;;;5080008;28;20475;-59
2023/01/22 01:13:41;;;;;;;7.00;5.13;;;;;;;;;;5078389;28;20464;-60
2023/01/22 01:16:12;;;;;;;8.33;4.90;;;;;;;;;;5079398;28;20448;-60
2023/01/22 01:18:41;;;;;;;6.50;5.80;;;;;;;;;;5079483;28;20440;-60
2023/01/22 01:21:10;;;;;;;7.83;5.43;;;;;;;;;;5079728;28;20864;-59
2023/01/22 01:23:39;;;;;;;10.30;6.20;;;;;;;;;;5079565;28;20533;-59
2023/01/22 01:26:08;;;;;;;9.13;6.23;;;;;;;;;;5079489;28;20484;-60
2023/01/22 01:28:36;;;;;;;6.57;5.07;;;;;;;;;;5079722;28;20444;-60
2023/01/22 01:31:04;;;;;;;8.20;5.37;;;;;;;;;;5079300;28;20478;-60
2023/01/22 01:33:32;;;;;;;6.37;5.17;;;;;;;;;;5079334;28;20864;-60
2023/01/22 01:36:03;;;;;;;7.57;5.07;;;;;;;;;;5079197;28;20500;-60
2023/01/22 01:38:31;;;;;;;7.20;4.93;;;;;;;;;;5079225;28;20462;-60
2023/01/22 01:40:59;;;;;;;8.27;5.90;;;;;;;;;;5079083;28;20457;-60
2023/01/22 01:43:27;;;;;;;8.87;6.70;;;;;;;;;;5079149;28;20457;-60
2023/01/22 01:45:56;;;;;;;8.23;5.53;;;;;;;;;;5078925;28;20449;-60
2023/01/22 01:48:26;;;;;;;9.97;5.63;;;;;;;;;;5079296;28;20444;-60
2023/01/22 01:50:57;;;;;;;6.03;4.33;;;;;;;;;;5079081;28;20444;-60
2023/01/22 01:53:27;;;;;;;8.47;5.87;;;;;;;;;;5078897;28;20826;-60
2023/01/22 01:55:55;;;;;;;7.90;5.10;;;;;;;;;;5078840;28;20453;-60
2023/01/22 01:58:25;;;;;;;7.47;5.33;;;;;;;;;;5079148;28;20451;-60
2023/01/22 02:00:56;;;;;;;7.70;5.60;;;;;;;;;;5078655;28;20463;-59
2023/01/22 02:03:24;;;;;;;9.13;5.97;;;;;;;;;;5078718;28;20467;-60
2023/01/22 02:05:52;;;;;;;9.53;5.17;;;;;;;;;;5078474;28;20451;-60
2023/01/22 02:08:20;;;;;;;7.30;5.50;;;;;;;;;;5078937;28;20444;-60
2023/01/22 02:10:50;;;;;;;7.97;4.47;;;;;;;;;;5078518;28;20493;-60
2023/01/22 02:13:20;;;;;;;6.13;5.53;;;;;;;;;;5078707;28;20472;-60
2023/01/22 02:15:48;;;;;;;8.50;4.97;;;;;;;;;;5078527;28;20479;-60
2023/01/22 02:18:16;;;;;;;9.30;5.57;;;;;;;;;;5078374;28;20935;-60
2023/01/22 02:20:53;;;;;;;7.10;4.77;;;;;;;;;;5078217;28;20436;-60
2023/01/22 02:23:21;;;;;;;8.17;5.40;;;;;;;;;;5078173;28;20496;-59
2023/01/22 02:25:49;;;;;;;7.00;5.20;;;;;;;;;;5078468;28;20441;-60
2023/01/22 02:28:17;;;;;;;7.17;4.50;;;;;;;;;;5078130;28;20490;-60
2023/01/22 02:30:45;;;;;;;7.93;5.53;;;;;;;;;;5077961;28;20516;-60
2023/01/22 02:33:13;;;;;;;7.17;5.07;;;;;;;;;;5078332;28;20472;-60
2023/01/22 02:35:41;;;;;;;7.30;5.87;;;;;;;;;;5077902;28;20479;-59
2023/01/22 02:38:10;;;;;;;7.17;4.87;;;;;;;;;;5078298;28;20437;-59
2023/01/22 02:40:47;;;;;;;8.20;4.93;;;;;;;;;;5078041;28;20786;-60
2023/01/22 02:43:16;;;;;;;6.10;5.07;;;;;;;;;;5077857;28;20822;-60
2023/01/22 02:45:44;;;;;;;7.60;5.63;;;;;;;;;;5077738;28;20476;-60
2023/01/22 02:48:12;;;;;;;8.47;4.83;;;;;;;;;;5078114;28;20480;-60
2023/01/22 02:50:40;;;;;;;8.13;5.30;;;;;;;;;;5078149;28;20527;-59
2023/01/22 02:53:10;;;;;;;7.97;5.13;;;;;;;;;;5078066;28;20472;-60
2023/01/22 02:55:38;;;;;;;7.43;5.03;;;;;;;;;;5077781;28;20466;-60
2023/01/22 02:58:06;;;;;;;8.10;5.07;;;;;;;;;;5078116;28;20440;-60
2023/01/22 03:00:34;;;;;;;6.87;4.50;;;;;;;;;;5077759;28;20526;-60
2023/01/22 03:03:06;;;;;;;8.73;4.97;;;;;;;;;;5077987;28;20464;-60
2023/01/22 03:05:34;;;;;;;6.47;4.80;;;;;;;;;;5077889;28;20489;-60
2023/01/22 03:08:02;;;;;;;6.70;4.43;;;;;;;;;;5077651;28;20476;-60
2023/01/22 03:10:32;;;;;;;6.07;4.97;;;;;;;;;;5077739;28;20832;-60
2023/01/22 03:21:17;;;;;;;5.77;4.60;;;;;;;;;;5069947;28;20812;-60
2023/01/22 03:23:46;;;;;;;5.77;4.00;;;;;;;;;;5077722;28;20461;-60
2023/01/22 03:26:16;;;;;;;5.60;4.80;;;;;;;;;;5077500;28;20998;-60
2023/01/22 03:28:44;;;;;;;5.93;4.53;;;;;;;;;;5077555;28;20703;-60
2023/01/22 03:31:13;;;;;;;7.23;5.43;;;;;;;;;;5077209;28;20970;-59
2023/01/22 03:33:41;;;;;;;6.97;4.83;;;;;;;;;;5077706;28;20464;-60
2023/01/22 03:36:10;;;;;;;6.00;4.13;;;;;;;;;;5079005;28;20445;-59
2023/01/22 03:38:38;;;;;;;6.40;4.00;;;;;;;;;;5081499;28;20479;-60
2023/01/22 03:41:07;;;;;;;5.53;4.47;;;;;;;;;;5081616;28;20459;-60
2023/01/22 03:43:37;;;;;;;5.50;4.40;;;;;;;;;;5081398;28;20533;-60
2023/01/22 03:46:06;;;;;;;8.60;5.17;;;;;;;;;;5081371;28;20476;-60
2023/01/22 03:48:34;;;;;;;5.80;4.70;;;;;;;;;;5081292;28;20563;-60
2023/01/22 03:51:06;;;;;;;5.53;4.10;;;;;;;;;;5081368;28;20467;-60
2023/01/22 03:53:34;;;;;;;6.27;5.40;;;;;;;;;;5081151;28;20496;-60
2023/01/22 03:56:03;;;;;;;5.27;4.43;;;;;;;;;;5081155;28;20949;-60
2023/01/22 03:58:31;;;;;;;6.73;4.80;;;;;;;;;;5081398;28;20449;-60
2023/01/22 04:01:02;;;;;;;6.47;4.67;;;;;;;;;;5080993;28;20449;-59
2023/01/22 04:03:30;;;;;;;6.17;4.27;;;;;;;;;;5081173;28;20532;-60
2023/01/22 04:06:00;;;;;;;6.13;4.67;;;;;;;;;;5081207;28;20475;-59
2023/01/22 04:08:28;;;;;;;5.67;4.00;;;;;;;;;;5080789;28;20511;-60
2023/01/22 04:10:57;;;;;;;6.37;4.27;;;;;;;;;;5081220;28;20447;-60
2023/01/22 04:13:25;;;;;;;5.47;4.50;;;;;;;;;;5080964;28;20468;-60
2023/01/22 04:15:53;;;;;;;6.80;4.50;;;;;;;;;;5080845;28;20490;-60
2023/01/22 04:18:22;;;;;;;5.50;4.23;;;;;;;;;;5080957;28;20446;-60
2023/01/22 04:20:51;;;;;;;5.07;3.97;;;;;;;;;;5080856;28;20440;-60
2023/01/22 04:23:19;;;;;;;5.17;4.03;;;;;;;;;;5080541;28;20491;-60
2023/01/22 04:25:47;;;;;;;6.77;4.03;;;;;;;;;;5080706;28;20923;-60
2023/01/22 04:28:15;;;;;;;5.80;4.60;;;;;;;;;;5080723;28;20512;-60
2023/01/22 04:30:44;;;;;;;5.03;4.10;;;;;;;;;;5080248;28;20954;-60
2023/01/22 04:33:12;;;;;;;6.83;4.50;;;;;;;;;;5080321;28;20975;-60
2023/01/22 04:35:42;;;;;;;5.73;4.63;;;;;;;;;;5080229;28;20472;-59
2023/01/22 04:38:12;;;;;;;6.27;4.73;;;;;;;;;;5080501;28;20557;-60
2023/01/22 04:40:40;;;;;;;5.43;4.20;;;;;;;;;;5080376;28;20440;-60
2023/01/22 04:43:08;;;;;;;5.27;4.00;;;;;;;;;;5080119;28;20460;-60
2023/01/22 04:45:36;;;;;;;5.27;4.50;;;;;;;;;;5080014;28;20481;-60
2023/01/22 04:48:04;;;;;;;6.77;4.77;;;;;;;;;;5079887;28;20995;-60
2023/01/22 04:50:33;;;;;;;7.20;4.40;;;;;;;;;;5080277;28;20451;-60
2023/01/22 04:53:02;;;;;;;7.10;4.67;;;;;;;;;;5080104;28;20464;-60
2023/01/22 04:55:30;;;;;;;7.00;4.60;;;;;;;;;;5080029;28;20970;-60
2023/01/22 04:57:59;;;;;;;5.67;4.27;;;;;;;;;;5080331;28;20472;-59
2023/01/22 05:00:28;;;;;;;5.97;4.13;;;;;;;;;;5079594;28;21021;-60
2023/01/22 05:02:56;;;;;;;5.70;3.93;;;;;;;;;;5080154;28;20473;-60
2023/01/22 05:05:25;;;;;;;6.73;4.93;;;;;;;;;;5080062;28;20440;-60
2023/01/22 05:07:53;;;;;;;7.27;4.77;;;;;;;;;;5079787;28;20522;-60
2023/01/22 05:10:22;;;;;;;7.10;3.83;;;;;;;;;;5079995;28;20451;-60
2023/01/22 05:12:50;;;;;;;6.23;4.17;;;;;;;;;;5079675;28;20493;-60
2023/01/22 05:15:18;;;;;;;5.57;4.03;;;;;;;;;;5079453;28;20509;-60
2023/01/22 05:17:51;;;;;;;5.43;4.33;;;;;;;;;;5079954;28;20452;-60
2023/01/22 05:20:20;;;;;;;7.30;5.27;;;;;;;;;;5079495;28;20467;-60
2023/01/22 05:22:48;;;;;;;6.23;4.77;;;;;;;;;;5079776;28;20471;-60
2023/01/22 05:25:16;;;;;;;5.73;4.33;;;;;;;;;;5079727;28;20451;-60
2023/01/22 05:27:45;;;;;;;4.97;4.30;;;;;;;;;;5079698;28;20451;-60
2023/01/22 05:30:13;;;;;;;5.33;4.20;;;;;;;;;;5079462;28;20449;-60
2023/01/22 05:32:41;;;;;;;5.97;4.67;;;;;;;;;;5079225;28;20804;-60
2023/01/22 05:35:10;;;;;;;4.47;3.97;;;;;;;;;;5079151;28;20480;-60
2023/01/22 05:37:38;;;;;;;4.33;3.87;;;;;;;;;;5079508;28;20520;-60
2023/01/22 05:40:06;;;;;;;5.27;4.10;;;;;;;;;;5079553;28;20472;-60
2023/01/22 05:42:34;;;;;;;5.50;4.10;;;;;;;;;;5079243;28;20444;-60
2023/01/22 05:45:04;;;;;;;6.20;4.00;;;;;;;;;;5079273;28;20445;-60
2023/01/22 05:47:32;;;;;;;5.53;4.17;;;;;;;;;;5079507;28;20472;-60
2023/01/22 05:50:00;;;;;;;7.97;4.33;;;;;;;;;;5078086;28;20473;-60
2023/01/22 05:52:28;;;;;;;5.50;3.97;;;;;;;;;;5077833;28;20428;-60
2023/01/22 05:54:58;;;;;;;6.80;4.17;;;;;;;;;;5072071;28;20921;-59
2023/01/22 05:57:28;;;;;;;4.70;4.03;;;;;;;;;;5075040;28;20471;-59
2023/01/22 05:59:56;;;;;;;4.87;4.33;;;;;;;;;;5075436;28;20441;-60
2023/01/22 06:02:26;;;;;;;6.07;4.20;;;;;;;;;;5071731;28;20444;-60
2023/01/22 06:04:54;;;;;;;5.37;4.40;;;;;;;;;;5068643;28;20436;-60
2023/01/22 06:07:22;;;;;;;5.20;4.33;;;;;;;;;;5067060;28;20438;-60
2023/01/22 06:09:50;;;;;;;5.47;3.93;;;;;;;;;;5078776;28;20481;-60
2023/01/22 06:12:18;;;;;;;6.13;4.20;;;;;;;;;;5078551;28;20464;-60
2023/01/22 06:14:46;;;;;;;6.60;4.67;;;;;;;;;;5078283;28;20458;-60
2023/01/22 06:17:14;;;;;;;6.03;4.57;;;;;;;;;;5078514;28;20506;-60
2023/01/22 06:19:43;;;;;;;4.63;4.23;;;;;;;;;;5078258;28;20448;-60
2023/01/22 06:22:11;;;;;;;4.93;4.17;;;;;;;;;;5071901;28;20440;-60
2023/01/22 06:24:40;;;;;;;4.67;4.27;;;;;;;;;;5078351;28;20500;-60
2023/01/22 06:27:08;;;;;;;5.73;4.23;;;;;;;;;;5078465;28;20444;-60
2023/01/22 06:29:36;;;;;;;7.67;5.00;;;;;;;;;;5078120;28;20571;-60
2023/01/22 06:32:06;;;;;;;6.27;4.90;;;;;;;;;;5078287;28;20448;-60
2023/01/22 06:34:34;;;;;;;6.27;4.77;;;;;;;;;;5077930;28;20476;-60
2023/01/22 06:37:04;;;;;;;5.63;4.53;;;;;;;;;;5078344;28;20464;-60
2023/01/22 06:39:32;;;;;;;6.10;4.23;;;;;;;;;;5078095;28;20437;-60
2023/01/22 06:42:00;;;;;;;7.63;4.33;;;;;;;;;;5078048;28;20470;-59
2023/01/22 06:44:28;;;;;;;6.37;4.67;;;;;;;;;;5078002;28;20987;-60
2023/01/22 06:46:56;;;;;;;5.77;4.23;;;;;;;;;;5078120;28;20444;-60
2023/01/22 06:49:24;;;;;;;6.43;4.60;;;;;;;;;;5078297;28;20480;-60
2023/01/22 06:51:52;;;;;;;5.93;4.93;;;;;;;;;;5078412;28;20436;-60
2023/01/22 06:54:21;;;;;;;6.17;4.47;;;;;;;;;;5077851;28;20850;-60
2023/01/22 06:56:49;;;;;;;4.53;4.13;;;;;;;;;;5078019;28;20503;-60
2023/01/22 06:59:17;;;;;;;7.57;4.73;;;;;;;;;;5077964;28;20497;-60
2023/01/22 07:01:45;;;;;;;5.27;4.77;;;;;;;;;;5077893;28;20445;-60
2023/01/22 07:04:13;;;;;;;6.37;4.70;;;;;;;;;;5077547;28;20834;-60
2023/01/22 07:06:42;;;;;;;7.07;4.60;;;;;;;;;;5074137;28;20478;-60
2023/01/22 07:09:10;;;;;;;7.43;4.30;;;;;;;;;;5074793;28;20476;-60
2023/01/22 07:11:39;;;;;;;6.07;4.73;;;;;;;;;;5071040;28;20436;-58
2023/01/22 07:14:07;;;;;;;7.13;4.67;;;;;;;;;;5071095;28;20456;-60
2023/01/22 07:16:35;;;;;;;6.30;4.67;;;;;;;;;;5073504;28;20437;-59
2023/01/22 07:19:03;;;;;;;6.77;5.07;;;;;;;;;;5071172;28;20444;-60
2023/01/22 07:21:31;;;;;;;8.00;4.93;;;;;;;;;;5076505;28;21003;-59
2023/01/22 07:23:59;;;;;;;6.33;4.83;;;;;;;;;;5067835;28;20967;-59
2023/01/22 07:26:27;;;;;;;5.87;5.03;;;;;;;;;;5073201;28;20437;-59
2023/01/22 07:28:57;;;;;;;6.40;4.30;;;;;;;;;;5066177;28;20551;-59
2023/01/22 07:31:25;;;;;;;6.60;5.67;;;;;;;;;;5068952;28;21010;-59
2023/01/22 07:33:53;;;;;;;6.57;4.97;;;;;;;;;;5072494;28;20464;-59
2023/01/22 07:36:21;;;;;;;5.10;4.33;;;;;;;;;;5077287;28;20462;-60
2023/01/22 07:38:49;;;;;;;7.40;5.40;;;;;;;;;;5077422;28;20579;-59
2023/01/22 07:41:17;;;;;;;5.10;4.60;;;;;;;;;;5077678;28;20471;-59
2023/01/22 07:43:54;;;;;;;9.77;5.30;;;;;;;;;;5069691;28;20986;-59
2023/01/22 07:46:24;;;;;;;6.50;5.23;;;;;;;;;;5067315;28;20441;-59
2023/01/22 07:48:52;;;;;;;5.37;4.83;;;;;;;;;;5063526;28;20452;-59
2023/01/22 07:51:20;;;;;;;8.93;5.87;;;;;;;;;;5077304;28;20978;-59
2023/01/22 07:53:49;;;;;;;6.13;4.80;;;;;;;;;;5077503;28;20498;-59
2023/01/22 07:56:18;;;;;;;6.13;4.63;;;;;;;;;;5077543;28;20562;-59
2023/01/22 07:58:46;;;;;;;8.10;4.90;;;;;;;;;;5076471;28;20440;-59
2023/01/22 08:01:14;;;;;;;6.03;5.43;;;;;;;;;;5075343;28;20472;-59
2023/01/22 08:03:44;;;;;;;6.70;5.00;;;;;;;;;;5068209;28;20478;-59
2023/01/22 08:06:14;;;;;;;7.77;5.63;;;;;;;;;;5069625;28;20542;-59
2023/01/22 08:08:42;;;;;;;9.07;5.60;;;;;;;;;;5072670;28;20451;-59
2023/01/22 08:11:10;;;;;;;8.73;6.33;;;;;;;;;;5073257;28;21014;-59
2023/01/22 08:13:38;;;;;;;9.63;6.90;;;;;;;;;;5067441;28;20464;-59
2023/01/22 08:16:08;;;;;;;6.93;5.20;;;;;;;;;;5069731;28;20445;-59
2023/01/22 08:18:36;;;;;;;7.90;5.17;;;;;;;;;;5077089;28;20440;-59
2023/01/22 08:21:06;;;;;;;5.87;5.27;;;;;;;;;;5076717;28;20464;-59
2023/01/22 08:23:34;;;;;;;7.27;4.93;;;;;;;;;;5080389;28;20502;-59
2023/01/22 08:26:03;;;;;;;6.70;4.83;;;;;;;;;;5080860;28;20478;-59
2023/01/22 08:28:31;;;;;;;9.33;5.60;;;;;;;;;;5080546;28;20440;-59
2023/01/22 08:30:59;;;;;;;6.37;4.77;;;;;;;;;;5080149;28;20849;-59
2023/01/22 08:33:28;;;;;;;8.23;5.30;;;;;;;;;;5080553;28;20487;-58
2023/01/22 08:35:56;;;;;;;6.90;5.87;;;;;;;;;;5080049;28;20503;-59
2023/01/22 08:38:25;;;;;;;6.97;5.13;;;;;;;;;;5080675;28;20451;-59
2023/01/22 08:40:53;;;;;;;8.00;5.20;;;;;;;;;;5080597;28;20452;-58
2023/01/22 08:43:23;;;;;;;7.80;6.27;;;;;;;;;;5080497;28;20488;-59
2023/01/22 08:45:51;;;;;;;5.80;4.93;;;;;;;;;;5080046;28;20487;-59
2023/01/22 08:48:18;;;;;;;8.83;4.90;;;;;;;;;;5080235;28;20993;-59
2023/01/22 08:50:46;;;;;;;8.57;5.40;;;;;;;;;;5079951;28;21223;-59
2023/01/22 08:53:14;;;;;;;7.53;5.90;;;;;;;;;;5080361;28;20531;-59
2023/01/22 08:55:50;;;;;;;11.27;6.40;;;;;;;;;;5080106;28;20807;-59
2023/01/22 08:58:19;;;;;;;7.63;5.50;;;;;;;;;;5080487;28;20452;-59
2023/01/22 09:00:47;;;;;;;9.60;5.53;;;;;;;;;;5079681;28;20483;-59
2023/01/22 09:03:15;;;;;;;5.87;4.73;;;;;;;;;;5079962;28;20492;-59
2023/01/22 09:05:43;;;;;;;7.07;5.40;;;;;;;;;;5079977;28;20472;-59
2023/01/22 09:08:11;;;;;;;9.43;6.30;;;;;;;;;;5079882;28;20444;-58
2023/01/22 09:10:39;;;;;;;6.07;5.00;;;;;;;;;;5080013;28;20514;-59
2023/01/22 09:13:09;;;;;;;7.27;5.83;;;;;;;;;;5079731;28;20540;-59
2023/01/22 09:15:37;;;;;;;6.50;5.27;;;;;;;;;;5079683;28;20448;-60
2023/01/22 09:18:05;;;;;;;8.33;5.63;;;;;;;;;;5079612;28;20927;-61
2023/01/22 09:20:33;;;;;;;7.00;5.30;;;;;;;;;;5079412;28;20802;-61
2023/01/22 09:23:01;;;;;;;8.63;5.43;;;;;;;;;;5079763;28;20456;-61
2023/01/22 09:25:30;;;;;;;6.20;5.47;;;;;;;;;;5079752;28;20451;-61
2023/01/22 09:27:59;;;;;;;6.77;5.20;;;;;;;;;;5079716;28;20479;-61
2023/01/22 09:30:29;;;;;;;12.43;6.63;;;;;;;;;;5079104;28;20990;-61
2023/01/22 09:32:57;;;;;;;7.20;5.63;;;;;;;;;;5078688;28;20488;-61
2023/01/22 09:35:26;;;;;;;7.00;5.20;;;;;;;;;;5078636;28;20504;-61
2023/01/22 09:37:54;;;;;;;7.90;5.30;;;;;;;;;;5079494;28;20437;-61
2023/01/22 09:40:25;;;;;;;7.10;5.30;;;;;;;;;;5079516;28;20523;-61
2023/01/22 09:42:59;;;;;;;10.57;4.93;;;;;;;;;;5078993;28;20951;-61
2023/01/22 09:45:28;;;;;;;6.73;5.23;;;;;;;;;;5078884;28;20989;-61
2023/01/22 09:48:01;;;;;;;9.57;6.37;;;;;;;;;;5078887;28;20455;-60
2023/01/22 09:50:30;;;;;;;8.03;6.20;;;;;;;;;;5079104;28;20484;-61
2023/01/22 09:53:00;;;;;;;9.57;5.77;;;;;;;;;;5079143;28;20494;-60
2023/01/22 09:55:29;;;;;;;7.17;5.93;;;;;;;;;;5078956;28;21034;-60
2023/01/22 09:58:00;;;;;;;11.47;6.90;;;;;;;;;;5077100;28;20455;-60
2023/01/22 10:00:37;;;;;;;11.30;6.03;;;;;;;;;;5080815;28;20444;-60
2023/01/22 10:03:07;;;;;;;7.97;5.37;;;;;;;;;;5077219;28;20490;-60
2023/01/22 10:05:36;;;;;;;10.60;5.87;;;;;;;;;;5087772;28;20441;-60
2023/01/22 10:08:06;;;;;;;8.33;5.67;;;;;;;;;;5078539;28;20974;-60
2023/01/22 10:10:34;;;;;;;7.67;4.80;;;;;;;;;;5078354;28;20480;-60
2023/01/22 10:13:07;;;;;;;8.17;6.30;;;;;;;;;;5078215;28;20471;-61
2023/01/22 10:15:37;;;;;;;8.07;6.53;;;;;;;;;;5078318;28;20472;-61
2023/01/22 10:18:09;;;;;;;11.17;5.97;;;;;;;;;;5071850;28;20463;-61
2023/01/22 10:20:38;;;;;;;11.10;6.83;;;;;;;;;;5078319;28;20451;-60
2023/01/22 10:23:12;;;;;;;9.40;6.20;;;;;;;;;;5077995;28;20492;-61
2023/01/22 10:25:40;;;;;;;9.10;6.60;;;;;;;;;;5078035;28;20445;-59
2023/01/22 10:28:08;;;;;;;9.10;6.17;;;;;;;;;;5072460;28;20448;-60
2023/01/22 10:30:46;;;;;;;10.00;5.90;;;;;;;;;;5077715;28;20448;-60
2023/01/22 10:33:16;;;;;;;8.50;5.50;;;;;;;;;;5079126;28;20455;-59
2023/01/22 10:35:47;;;;;;;9.17;6.53;;;;;;;;;;5077878;28;20901;-59
2023/01/22 10:38:22;;;;;;;10.47;5.83;;;;;;;;;;5077909;28;20443;-59
2023/01/22 10:40:52;;;;;;;9.07;5.40;;;;;;;;;;5077855;28;20896;-60
2023/01/22 10:43:20;;;;;;;7.77;6.07;;;;;;;;;;5074953;28;20479;-60
2023/01/22 10:45:53;;;;;;;11.17;7.10;;;;;;;;;;5075744;28;20436;-60
2023/01/22 10:48:22;;;;;;;8.30;6.70;;;;;;;;;;5070490;28;20511;-60
2023/01/22 10:50:59;;;;;;;8.53;6.00;;;;;;;;;;5076044;28;20785;-59
2023/01/22 10:53:30;;;;;;;8.50;6.13;;;;;;;;;;5077896;28;20486;-59
2023/01/22 10:55:59;;;;;;;11.30;6.10;;;;;;;;;;5077617;28;20467;-59
2023/01/22 10:58:30;;;;;;;8.53;5.63;;;;;;;;;;5077588;28;20440;-60
2023/01/22 11:01:01;;;;;;;8.87;5.87;;;;;;;;;;5077236;28;20935;-59
2023/01/22 11:03:30;;;;;;;6.20;5.43;;;;;;;;;;5077787;28;20468;-59
2023/01/22 11:06:00;;;;;;;7.03;5.23;;;;;;;;;;5077444;28;20939;-60
2023/01/22 11:08:30;;;;;;;9.33;6.50;;;;;;;;;;5071562;28;20502;-60
2023/01/22 11:11:00;;;;;;;7.57;5.23;;;;;;;;;;5067564;28;20448;-60
2023/01/22 11:13:31;;;;;;;10.47;5.80;;;;;;;;;;5077586;28;20464;-60
2023/01/22 11:16:05;;;;;;;7.50;5.80;;;;;;;;;;5077477;28;20951;-60
2023/01/22 11:18:35;;;;;;;9.17;6.27;;;;;;;;;;5074865;28;20502;-60
2023/01/22 11:21:07;;;;;;;7.77;5.60;;;;;;;;;;5075511;28;20885;-60
2023/01/22 11:23:40;;;;;;;9.90;6.20;;;;;;;;;;5071487;28;20476;-60
2023/01/22 11:26:15;;;;;;;7.47;5.30;;;;;;;;;;5077373;28;20873;-60
2023/01/22 11:28:47;;;;;;;8.97;5.93;;;;;;;;;;5077315;28;20468;-60
2023/01/22 11:31:27;;;;;;;8.93;7.03;;;;;;;;;;5077116;28;20506;-60
2023/01/22 11:34:07;;;;;;;6.53;4.93;;;;;;;;;;5077314;28;20510;-59
2023/01/22 11:36:37;;;;;;;9.23;6.33;;;;;;;;;;5077090;28;20444;-60
2023/01/22 11:39:09;;;;;;;7.10;5.33;;;;;;;;;;5077396;28;20976;-59
2023/01/22 11:41:45;;;;;;;7.40;6.00;;;;;;;;;;5077446;28;20468;-59
2023/01/22 11:44:23;;;;;;;8.07;6.10;;;;;;;;;;5077249;28;20550;-59
2023/01/22 11:46:58;;;;;;;6.77;5.13;;;;;;;;;;5077125;28;20889;-60
2023/01/22 11:49:33;;;;;;;8.87;5.93;;;;;;;;;;5077094;28;20876;-59
2023/01/22 11:52:07;;;;;;;7.70;5.57;;;;;;;;;;5077215;28;20483;-60
2023/01/22 11:54:45;;;;;;;7.20;5.67;;;;;;;;;;5077449;28;20504;-59
2023/01/22 11:57:17;;;;;;;9.67;6.13;;;;;;;;;;5078801;28;20451;-59
2023/01/22 11:59:53;;;;;;;7.83;5.60;;;;;;;;;;5081038;28;20452;-60
2023/01/22 12:02:45;;;;;;;9.20;6.17;;;;;;;;;;5080845;28;20440;-59
2023/01/22 12:05:17;;;;;;;7.77;5.57;;;;;;;;;;5080996;28;20455;-59
2023/01/22 12:07:54;;;;;;;6.07;5.47;;;;;;;;;;5076029;28;20461;-60
2023/01/22 12:10:36;;;;;;;8.07;4.67;;;;;;;;;;5077917;28;20447;-59
2023/01/22 12:13:08;;;;;;;10.97;6.20;;;;;;;;;;5079827;28;20492;-59
2023/01/22 12:15:41;;;;;;;8.13;6.53;;;;;;;;;;5080257;28;20944;-60
2023/01/22 12:18:37;;;;;;;11.17;6.10;;;;;;;;;;5080528;28;20440;-59
2023/01/22 12:21:06;;;;;;;8.97;5.73;;;;;;;;;;5080285;28;20475;-60
2023/01/22 12:23:36;;;;;;;8.17;5.00;;;;;;;;;;5080446;28;20461;-60
2023/01/22 12:26:06;;;;;;;6.27;5.57;;;;;;;;;;5080668;28;20447;-59
2023/01/22 12:28:39;;;;;;;7.37;5.20;;;;;;;;;;5080478;28;20471;-58
2023/01/22 12:31:10;;;;;;;9.13;5.80;;;;;;;;;;5080236;28;20450;-60
2023/01/22 12:33:41;;;;;;;7.43;5.77;;;;;;;;;;5080236;28;20982;-60
2023/01/22 12:36:11;;;;;;;9.53;5.63;;;;;;;;;;5039998;28;20450;-60
2023/01/22 12:38:43;;;;;;;7.73;6.20;;;;;;;;;;5040210;28;20442;-59
2023/01/22 12:41:15;;;;;;;6.93;5.10;;;;;;;;;;5040410;28;20446;-60
2023/01/22 12:43:47;;;;;;;8.10;6.13;;;;;;;;;;5032229;28;20457;-60
2023/01/22 12:46:21;;;;;;;8.13;6.10;;;;;;;;;;5040199;28;20446;-59
2023/01/22 12:48:54;;;;;;;6.83;5.37;;;;;;;;;;5040443;28;20935;-60
2023/01/22 12:51:27;;;;;;;10.30;6.10;;;;;;;;;;5040045;28;20875;-59
2023/01/22 12:53:55;;;;;;;7.60;5.83;;;;;;;;;;5039926;28;20594;-59
2023/01/22 12:56:32;;;;;;;8.13;5.37;;;;;;;;;;5040159;28;20446;-59
2023/01/22 12:59:00;;;;;;;8.10;5.73;;;;;;;;;;5039773;28;20882;-59
2023/01/22 13:01:32;;;;;;;7.30;5.27;;;;;;;;;;5039932;28;20450;-59
2023/01/22 13:04:03;;;;;;;6.70;4.93;;;;;;;;;;5039982;28;20520;-60
2023/01/22 13:06:32;;;;;;;8.97;5.67;;;;;;;;;;5040083;28;20446;-59
2023/01/22 13:09:01;;;;;;;10.03;5.90;;;;;;;;;;5039712;28;20878;-60
2023/01/22 13:11:30;;;;;;;8.57;5.93;;;;;;;;;;5038899;28;20511;-60
2023/01/22 13:14:06;;;;;;;9.37;6.37;;;;;;;;;;5037626;28;20823;-60
2023/01/22 13:16:49;;;;;;;8.43;6.30;;;;;;;;;;5037980;28;20442;-59
2023/01/22 13:19:21;;;;;;;10.47;5.77;;;;;;;;;;5037683;28;20865;-60
2023/01/22 13:21:49;;;;;;;9.43;6.07;;;;;;;;;;5037829;28;20474;-60
2023/01/22 13:24:18;;;;;;;7.83;5.93;;;;;;;;;;5037990;28;20476;-60
2023/01/22 13:26:51;;;;;;;7.87;5.77;;;;;;;;;;5038790;28;20526;-59
2023/01/22 13:29:21;;;;;;;6.90;5.13;;;;;;;;;;5039227;28;20529;-60
2023/01/22 13:31:53;;;;;;;8.17;6.17;;;;;;;;;;5039569;28;20477;-60
2023/01/22 13:34:22;;;;;;;10.17;6.03;;;;;;;;;;5049142;28;20484;-60
2023/01/22 13:36:51;;;;;;;9.17;6.00;;;;;;;;;;5079094;28;20464;-60
2023/01/22 13:39:19;;;;;;;9.47;6.17;;;;;;;;;;5079357;28;20531;-60
2023/01/22 13:41:49;;;;;;;7.73;5.67;;;;;;;;;;5079365;28;20436;-60
2023/01/22 13:44:18;;;;;;;6.57;4.97;;;;;;;;;;5078927;28;20456;-60
2023/01/22 13:46:47;;;;;;;7.33;5.33;;;;;;;;;;5079032;28;20543;-60
2023/01/22 13:49:20;;;;;;;10.20;6.13;;;;;;;;;;5079080;28;20475;-60
2023/01/22 13:51:50;;;;;;;7.30;5.60;;;;;;;;;;5079196;28;20449;-60
2023/01/22 13:54:20;;;;;;;9.60;6.73;;;;;;;;;;5078731;28;21049;-60
2023/01/22 13:56:48;;;;;;;6.77;5.47;;;;;;;;;;5079289;28;20942;-60
2023/01/22 13:59:21;;;;;;;10.23;5.67;;;;;;;;;;5078732;28;20457;-60
2023/01/22 14:01:50;;;;;;;8.57;5.50;;;;;;;;;;5078983;28;20472;-60
2023/01/22 14:04:29;;;;;;;7.50;5.97;;;;;;;;;;5078561;28;21088;-60
2023/01/22 14:06:58;;;;;;;8.47;5.70;;;;;;;;;;5078663;28;20532;-60
2023/01/22 14:09:27;;;;;;;10.33;6.60;;;;;;;;;;5078585;28;20452;-60
2023/01/22 14:11:56;;;;;;;7.63;5.97;;;;;;;;;;5078740;28;20452;-60
2023/01/22 14:14:24;;;;;;;8.20;5.73;;;;;;;;;;5078055;28;20492;-60
2023/01/22 14:16:52;;;;;;;8.20;5.07;;;;;;;;;;5078372;28;20447;-60
2023/01/22 14:19:20;;;;;;;7.50;5.97;;;;;;;;;;5077646;28;20480;-60
2023/01/22 14:21:48;;;;;;;6.87;5.27;;;;;;;;;;5078568;28;20444;-60
2023/01/22 14:24:17;;;;;;;13.00;9.40;;;;;;;;;;5078263;28;20834;-60
2023/01/22 14:26:45;;;;;;;11.70;6.80;;;;;;;;;;5078208;28;20455;-60
2023/01/22 14:29:13;;;;;;;9.87;6.57;;;;;;;;;;5077834;28;20878;-60
2023/01/22 14:31:41;;;;;;;10.30;6.80;;;;;;;;;;5078115;28;20449;-60
2023/01/22 14:34:09;;;;;;;9.80;6.47;;;;;;;;;;5077695;28;20541;-60
2023/01/22 14:36:37;;;;;;;7.70;5.73;;;;;;;;;;5078337;28;20441;-60
2023/01/22 14:39:05;;;;;;;12.80;7.07;;;;;;;;;;5078031;28;20831;-60
2023/01/22 14:41:35;;;;;;;9.97;6.90;;;;;;;;;;5077866;28;20444;-60
2023/01/22 14:44:03;;;;;;;9.87;6.53;;;;;;;;;;5078031;28;20495;-60
2023/01/22 14:46:31;;;;;;;10.80;7.30;;;;;;;;;;5077885;28;20445;-60
2023/01/22 14:49:00;;;;;;;10.60;7.73;;;;;;;;;;5077947;28;20456;-60
2023/01/22 14:51:28;;;;;;;10.80;6.93;;;;;;;;;;5077694;28;20444;-60
2023/01/22 14:53:57;;;;;;;12.60;7.67;;;;;;;;;;5077846;28;20527;-60
2023/01/22 14:56:25;;;;;;;10.30;6.90;;;;;;;;;;5078074;28;20454;-60
2023/01/22 14:58:54;;;;;;;9.73;7.13;;;;;;;;;;5077796;28;20440;-60
2023/01/22 15:01:22;;;;;;;13.33;7.90;;;;;;;;;;5067580;28;20507;-60
2023/01/22 15:03:51;;;;;;;12.43;7.70;;;;;;;;;;5077567;28;20526;-60